KAMG/AMG METAR and TAF weather

Enter ICAO airport designator
Station Type Date Time Source
KAMG METAR 2018/07/21 22:53 UTC NOAA

KAMG 212253Z AUTO 24007KT 10SM CLR 27/21 A2981 RMK AO2 SLP092 T02720211 TSNO


Station Type Date Time Source
KAMG Decoded METAR 2018/07/21 22:53 UTC NOAA

ALMA BACON COUNTY AIRPORT, GA, United States (KAMG) 31-32N 82-30W 59M
Jul 21, 2018 - 06:53 PM EDT / 2018.07.21 2253 UTC
Wind: from the WSW (240 degrees) at 8 MPH (7 KT):0
Visibility: 10 mile(s):0
Sky conditions: clear
Temperature: 81.0 F (27.2 C)
Dew Point: 70.0 F (21.1 C)
Relative Humidity: 69%
Pressure (altimeter): 29.81 in. Hg (1009 hPa)
ob: KAMG 212253Z AUTO 24007KT 10SM CLR 27/21 A2981 RMK AO2 SLP092 T02720211 TSNO
cycle: 23

Station Type Date Time Source
KAMG TAF UTC NOAA

Error!


Example: see airport list